Terminal Aerodrome Forecast
Issued by NWS North Platte, NE

Home | Current Version | Previous Version | Graphics & Text | Print | Product List | Glossary On
Versions: 1 2 3 4 5 6 7 8 9 10 11 12
000
FTUS43 KLBF 210500
TAFVTN
TAF
KVTN 210520Z 2106/2206 23009KT P6SM SCT150
     FM210900 27005KT P6SM SCT150
     FM211600 35010KT P6SM SCT150
     FM220100 03006KT P6SM SCT100=

USA.gov is the U.S. government's official web portal to all federal, state and local government web resources and services.